Time;durP1;ratioP1;P1;durP2;ratioP2;P2;SDS_P1;SDS_P2;PMS_P1;PMS_P2;Temp;Humidity;BMP_temperature;BMP_pressure;BME280_temperature;BME280_humidity;BME280_pressure;Samples;Min_cycle;Max_cycle;Signal;HPM_P1;HPM_P2
2022/11/03 06:21:34;;;;;;;29.10;14.20;;;;;;;18.66;45.02;101337.13;106540;1282;68041;-91
2022/11/03 06:33:13;;;;;;;41.40;14.20;;;;;;;18.77;45.15;101340.91;106464;1277;68027;-91
2022/11/03 06:59:55;;;;;;;30.00;15.70;;;;;;;18.93;45.33;101363.70;106391;1288;71572;-91
2022/11/03 07:02:49;;;;;;;30.20;14.40;;;;;;;18.96;45.15;101365.68;106367;1288;70486;-87
2022/11/03 07:05:21;;;;;;;30.10;15.40;;;;;;;18.99;45.26;101368.45;106122;1287;68214;-87
2022/11/03 07:07:52;;;;;;;30.70;15.40;;;;;;;19.02;45.26;101372.48;105854;1290;73022;-92
2022/11/03 08:50:01;;;;;;;;;;;;;;;18.85;45.54;101348.88;106749;1284;73012;-91
2022/11/03 08:58:05;;;;;;;30.50;17.20;;;;;;;18.97;45.54;101354.37;106288;1272;73755;-90
2022/11/03 09:15:54;;;;;;;34.90;18.60;;;;;;;19.21;45.77;101337.96;106761;1282;80176;-91
2022/11/03 10:13:59;;;;;;;24.60;13.30;;;;;;;19.59;46.09;101297.02;106671;1272;66876;-92
2022/11/03 10:16:25;;;;;;;25.10;14.80;;;;;;;19.65;46.05;101293.34;106402;1287;67575;-91
2022/11/03 10:37:48;;;;;;;23.60;13.20;;;;;;;19.58;45.06;101277.99;106489;1276;80759;-91
2022/11/03 11:34:50;;;;;;;21.60;12.10;;;;;;;19.70;44.91;101200.05;106760;1276;74441;31
2022/11/03 11:37:19;;;;;;;20.90;12.00;;;;;;;19.68;44.69;101193.70;105885;1279;82100;31
2022/11/03 12:29:19;;;;;;;16.80;8.40;;;;;;;19.68;42.88;101151.98;106428;1282;67777;-92
2022/11/03 12:31:47;;;;;;;15.90;8.30;;;;;;;19.69;42.80;101151.31;105703;1287;70041;-94
2022/11/03 12:34:17;;;;;;;11.20;8.00;;;;;;;19.68;42.80;101151.00;105822;1284;67766;-91
2022/11/03 12:39:27;;;;;;;14.70;8.50;;;;;;;19.67;42.46;101149.20;105320;1296;72601;-91
2022/11/03 12:41:52;;;;;;;14.80;8.30;;;;;;;19.67;42.56;101147.86;105579;1288;69966;-92
2022/11/03 12:44:18;;;;;;;24.50;18.60;;;;;;;19.67;42.43;101148.84;105739;1288;70029;-92
2022/11/03 12:47:06;;;;;;;26.70;17.80;;;;;;;19.65;42.32;101147.39;105820;1290;69836;-92
2022/11/03 12:49:51;;;;;;;23.50;16.80;;;;;;;19.67;42.24;101149.53;105737;1294;82868;-91
2022/11/03 12:52:36;;;;;;;22.00;16.00;;;;;;;19.64;42.29;101148.09;105757;1287;72524;-91
2022/11/03 12:55:06;;;;;;;22.20;15.20;;;;;;;19.63;42.17;101144.65;105627;1294;69824;-91
2022/11/03 12:57:32;;;;;;;21.50;14.10;;;;;;;19.63;42.16;101148.52;105708;1294;68589;-92
2022/11/03 12:59:58;;;;;;;18.60;13.40;;;;;;;19.62;42.00;101142.63;105766;1290;69947;-92
2022/11/03 13:08:17;;;;;;;17.80;12.80;;;;;;;19.61;42.26;101134.40;105799;1291;68369;-91
2022/11/03 13:10:47;;;;;;;19.60;12.40;;;;;;;19.62;42.20;101134.01;105553;1292;68092;-92
2022/11/03 13:13:13;;;;;;;18.40;11.60;;;;;;;19.63;42.10;101133.41;105942;1295;74665;-92
2022/11/03 13:18:08;;;;;;;17.40;11.00;;;;;;;19.62;42.09;101133.40;105683;1294;73451;-92
2022/11/03 13:26:26;;;;;;;20.90;11.10;;;;;;;19.63;42.28;101127.22;106709;1287;74149;-91
2022/11/03 13:28:52;;;;;;;18.80;10.10;;;;;;;19.64;42.39;101121.23;106554;1287;67437;-91
2022/11/03 13:34:08;;;;;;;16.40;9.30;;;;;;;19.63;42.27;101121.78;106897;1278;67608;-91
2022/11/03 13:39:24;;;;;;;14.40;10.00;;;;;;;19.62;42.18;101118.71;106577;1290;73730;-92
2022/11/03 13:42:13;;;;;;;15.80;10.00;;;;;;;19.60;42.28;101111.98;106082;1290;70135;-92
2022/11/03 13:44:38;;;;;;;18.20;10.40;;;;;;;19.62;42.11;101113.17;105676;1296;72762;-91
2022/11/03 13:47:12;;;;;;;20.50;10.40;;;;;;;19.62;42.18;101115.77;105470;1294;69975;-92
2022/11/03 13:49:46;;;;;;;16.00;10.20;;;;;;;19.61;42.31;101117.56;105488;1291;67903;-90
2022/11/03 13:52:12;;;;;;;18.20;10.30;;;;;;;19.61;42.10;101112.45;105672;1287;74542;-93
2022/11/03 13:54:44;;;;;;;15.40;10.00;;;;;;;19.60;42.08;101114.17;105448;1280;69945;31
2022/11/03 13:57:10;;;;;;;14.20;10.70;;;;;;;19.59;42.03;101113.02;105383;1291;72732;-92
2022/11/03 13:59:36;;;;;;;14.40;10.30;;;;;;;19.58;42.20;101115.06;105705;1281;69906;-92
2022/11/03 14:02:02;;;;;;;14.60;9.70;;;;;;;19.57;42.10;101115.35;105766;1294;70110;-92
2022/11/03 14:07:29;;;;;;;17.90;10.40;;;;;;;19.56;42.08;101113.84;105917;1291;79953;-92
2022/11/03 14:23:53;;;;;;;11.20;8.60;;;;;;;19.50;41.85;101105.95;105455;1287;67950;-91
2022/11/03 14:26:19;;;;;;;15.40;10.30;;;;;;;19.50;42.01;101104.98;105386;1294;70021;-93
2022/11/03 14:28:45;;;;;;;23.90;12.20;;;;;;;19.50;42.04;101105.29;105878;1285;67294;-92
2022/11/03 14:34:12;;;;;;;19.60;9.50;;;;;;;19.50;41.96;101108.70;105867;1288;71290;-92
2022/11/03 14:36:42;;;;;;;25.70;10.10;;;;;;;19.49;41.70;101108.90;105482;1296;69978;-89
2022/11/03 14:39:08;;;;;;;17.90;9.30;;;;;;;19.46;41.91;101110.27;105432;1291;69163;-93
2022/11/03 14:44:29;;;;;;;16.30;11.00;;;;;;;19.40;41.98;101102.50;106129;1276;79965;-92
2022/11/03 14:46:54;;;;;;;20.20;10.50;;;;;;;19.37;41.94;101098.48;105578;1282;71230;-92
2022/11/03 14:49:20;;;;;;;19.30;10.30;;;;;;;19.35;42.02;101103.45;105416;1285;70033;-92
2022/11/03 14:51:45;;;;;;;17.90;10.90;;;;;;;19.33;41.80;101103.73;105526;1290;68603;-92
2022/11/03 14:54:11;;;;;;;14.50;10.10;;;;;;;19.33;41.82;101103.52;105674;1295;69998;-92
2022/11/03 14:56:36;;;;;;;20.80;11.20;;;;;;;19.32;41.70;101101.37;105890;1293;68009;-92
2022/11/03 14:59:02;;;;;;;19.90;11.10;;;;;;;19.33;41.65;101094.48;105410;1290;69997;-92
2022/11/03 15:01:27;;;;;;;16.10;10.60;;;;;;;19.33;41.79;101092.85;105426;1294;67806;-92
2022/11/03 15:03:53;;;;;;;21.30;10.30;;;;;;;19.34;41.70;101091.51;105280;1290;70030;-91
2022/11/03 15:06:18;;;;;;;16.00;10.90;;;;;;;19.34;41.71;101085.48;105378;1294;69997;-92
2022/11/03 15:08:44;;;;;;;19.60;11.70;;;;;;;19.35;41.72;101081.66;105286;1292;67636;-92
2022/11/03 15:11:09;;;;;;;18.00;11.60;;;;;;;19.36;41.67;101078.16;105608;1288;70037;-91
2022/11/03 15:13:36;;;;;;;19.80;11.50;;;;;;;19.37;41.64;101079.09;105051;1291;69975;-91
2022/11/03 15:16:02;;;;;;;18.60;11.40;;;;;;;19.37;41.66;101083.13;105199;1295;69938;-92
2022/11/03 15:18:28;;;;;;;20.00;11.70;;;;;;;19.38;41.61;101079.67;105017;1290;70109;-92
2022/11/03 15:20:53;;;;;;;17.30;11.40;;;;;;;19.39;41.62;101082.73;105552;1293;69749;-91
2022/11/03 15:23:19;;;;;;;22.20;11.70;;;;;;;19.39;41.51;101081.22;105552;1290;74281;-92
2022/11/03 15:25:44;;;;;;;19.90;11.90;;;;;;;19.39;41.47;101079.63;105607;1287;69961;-92
2022/11/03 15:28:14;;;;;;;20.90;11.30;;;;;;;19.39;41.45;101083.05;105699;1287;67696;-91
2022/11/03 15:33:40;;;;;;;18.60;10.30;;;;;;;19.40;41.55;101084.95;105656;1291;67680;-91
2022/11/03 15:38:49;;;;;;;19.90;10.50;;;;;;;19.41;41.41;101078.99;105302;1290;82912;-91
2022/11/03 15:47:21;;;;;;;19.10;10.20;;;;;;;19.40;41.46;101075.40;105876;1285;68271;-92
2022/11/03 15:49:46;;;;;;;23.10;11.10;;;;;;;19.40;41.44;101076.02;105589;1288;69864;-92
2022/11/03 15:52:12;;;;;;;16.80;9.90;;;;;;;19.40;41.57;101075.87;105870;1290;69979;-93
2022/11/03 15:54:41;;;;;;;18.70;10.70;;;;;;;19.40;41.41;101073.22;105548;1283;70132;-92
2022/11/03 15:59:47;;;;;;;17.60;9.80;;;;;;;19.40;41.30;101072.34;106589;1296;67327;-92
2022/11/03 16:11:22;;;;;;;15.50;10.00;;;;;;;19.40;41.33;101065.14;106441;1285;68648;-93
2022/11/03 16:13:58;;;;;;;16.30;9.90;;;;;;;19.40;41.22;101063.21;106067;1274;67386;-93
2022/11/03 16:16:24;;;;;;;15.70;10.20;;;;;;;19.41;41.32;101069.27;106092;1281;74254;-92
2022/11/03 16:33:41;;;;;;;17.30;10.00;;;;;;;19.39;41.08;101075.10;106414;1278;82685;-92
2022/11/03 16:41:38;;;;;;;18.90;10.50;;;;;;;19.40;41.12;101078.21;106297;1287;69904;-93
2022/11/03 16:44:03;;;;;;;21.80;10.90;;;;;;;19.40;41.11;101081.48;106045;1294;69949;-92
2022/11/03 16:52:32;;;;;;;22.90;11.10;;;;;;;19.39;41.00;101071.77;106441;1287;67627;-92
2022/11/03 16:54:58;;;;;;;22.90;11.70;;;;;;;19.39;41.01;101077.84;106066;1290;67685;-93
2022/11/03 16:57:44;;;;;;;18.40;11.40;;;;;;;19.40;41.09;101075.25;106322;1284;69988;31
2022/11/03 17:00:17;;;;;;;26.40;11.60;;;;;;;19.39;40.95;101073.77;106028;1290;82240;-91
2022/11/03 17:02:43;;;;;;;19.50;11.10;;;;;;;19.39;40.98;101064.84;105674;1292;72481;-92
2022/11/03 17:05:10;;;;;;;21.10;12.00;;;;;;;19.40;41.02;101069.64;106127;1290;68301;-92
2022/11/03 17:13:30;;;;;;;20.80;10.70;;;;;;;19.38;40.74;101064.27;106972;1271;82692;-93
2022/11/03 17:30:46;;;;;;;19.70;10.50;;;;;;;19.37;40.74;101068.42;105968;1278;71498;-92
2022/11/03 17:36:08;;;;;;;21.90;10.80;;;;;;;19.37;40.90;101063.02;106960;1278;66053;31
2022/11/03 17:38:34;;;;;;;21.80;11.20;;;;;;;19.37;40.82;101057.77;106322;1282;74244;-94
2022/11/03 17:40:59;;;;;;;20.70;10.60;;;;;;;19.37;40.79;101058.02;105880;1288;68322;-93
2022/11/03 17:43:26;;;;;;;18.80;11.10;;;;;;;19.35;40.71;101058.80;105771;1290;331657;-93
2022/11/03 17:46:15;;;;;;;21.80;10.80;;;;;;;19.36;40.81;101061.08;106104;1281;67271;-93
2022/11/03 17:48:40;;;;;;;23.10;10.50;;;;;;;19.36;40.65;101064.19;105888;1279;70027;-92
2022/11/03 17:56:59;;;;;;;21.70;11.60;;;;;;;19.36;40.70;101061.42;106544;1277;72283;-91
2022/11/03 17:59:25;;;;;;;20.80;11.80;;;;;;;19.36;40.73;101061.27;105703;1293;67717;-92
2022/11/03 18:07:35;;;;;;;26.60;12.60;;;;;;;19.34;40.85;101055.02;106638;1284;79934;-92
2022/11/03 18:10:00;;;;;;;30.60;12.60;;;;;;;19.34;40.81;101054.70;106325;1278;67463;-92
2022/11/03 18:15:23;;;;;;;25.50;12.80;;;;;;;19.33;40.89;101056.17;106496;1287;69798;-91
2022/11/03 18:23:59;;;;;;;24.20;12.60;;;;;;;19.32;40.77;101046.61;106689;1281;71524;31
2022/11/03 18:26:25;;;;;;;26.60;12.60;;;;;;;19.32;40.83;101042.13;106238;1294;69893;-92
2022/11/03 18:28:59;;;;;;;30.30;13.20;;;;;;;19.32;40.75;101043.05;106235;1287;68147;-92
2022/11/03 18:31:49;;;;;;;24.30;12.60;;;;;;;19.32;40.74;101040.94;105764;1288;74398;-91
2022/11/03 18:34:17;;;;;;;25.40;13.10;;;;;;;19.31;40.70;101041.45;106073;1290;82909;-92
2022/11/03 18:42:29;;;;;;;24.00;12.90;;;;;;;19.30;40.59;101042.96;105690;1287;67696;-93
2022/11/03 18:44:59;;;;;;;25.80;13.70;;;;;;;19.30;40.69;101042.43;105817;1290;67923;-90
2022/11/03 18:50:06;;;;;;;30.00;13.20;;;;;;;19.30;40.77;101040.19;105292;1288;72304;-92
2022/11/03 18:52:33;;;;;;;32.50;13.30;;;;;;;19.29;40.66;101035.80;105389;1290;69898;-92
2022/11/03 18:55:48;;;;;;;28.30;13.90;;;;;;;19.29;40.78;101030.02;105269;1293;68349;-92
2022/11/03 18:58:22;;;;;;;27.70;14.30;;;;;;;19.28;40.80;101032.36;105617;1288;74445;-91
2022/11/03 19:01:06;;;;;;;25.70;14.30;;;;;;;19.28;40.83;101027.71;105454;1289;83022;-91
2022/11/03 19:03:51;;;;;;;26.40;14.40;;;;;;;19.27;40.78;101027.19;105547;1293;72233;-92
2022/11/03 19:06:18;;;;;;;29.60;14.90;;;;;;;19.27;40.77;101026.41;105447;1285;69879;-92
2022/11/03 19:08:43;;;;;;;25.20;14.50;;;;;;;19.27;40.79;101023.92;105444;1291;69913;-91
2022/11/03 19:11:10;;;;;;;25.60;13.70;;;;;;;19.26;40.78;101021.61;105111;1293;70028;-92
2022/11/03 19:13:37;;;;;;;31.80;15.10;;;;;;;19.26;40.67;101022.59;105634;1288;69809;-92
2022/11/03 19:16:22;;;;;;;28.60;15.40;;;;;;;19.26;40.86;101017.33;105687;1288;69796;-92
2022/11/03 19:21:45;;;;;;;30.10;15.60;;;;;;;19.25;40.79;101020.27;105824;1287;67947;-91
2022/11/03 19:27:05;;;;;;;27.10;15.50;;;;;;;19.24;40.87;101022.30;106113;1276;79331;-91
2022/11/03 19:29:36;;;;;;;28.70;15.50;;;;;;;19.24;40.81;101017.20;105535;1279;72929;31
2022/11/03 19:32:02;;;;;;;33.50;16.40;;;;;;;19.24;40.90;101016.70;104857;1289;69967;-91
2022/11/03 19:34:30;;;;;;;32.30;16.60;;;;;;;19.24;40.85;101019.09;105785;1287;70049;-91
2022/11/03 19:37:07;;;;;;;30.50;16.80;;;;;;;19.23;40.79;101020.26;105231;1272;74393;-91
2022/11/03 19:39:52;;;;;;;29.90;16.20;;;;;;;19.24;40.82;101019.35;105258;1290;83767;-91
2022/11/03 19:42:41;;;;;;;33.90;16.70;;;;;;;19.23;40.74;101020.35;105299;1290;72725;-91
2022/11/03 19:45:13;;;;;;;27.70;16.60;;;;;;;19.22;40.84;101015.75;106364;1287;67734;-90
2022/11/03 19:47:53;;;;;;;31.20;17.20;;;;;;;19.22;40.85;101015.44;106262;1294;67659;31
2022/11/03 19:50:38;;;;;;;28.90;16.80;;;;;;;19.22;40.88;101017.99;106314;1293;74564;31
2022/11/03 19:53:05;;;;;;;29.20;17.10;;;;;;;19.22;40.85;101023.61;105015;1290;83084;-92
2022/11/03 19:55:39;;;;;;;28.60;16.20;;;;;;;19.22;40.74;101021.61;105259;1291;72478;-91
2022/11/03 19:58:19;;;;;;;27.70;16.70;;;;;;;19.22;40.87;101020.39;105170;1290;69970;-91
2022/11/03 20:01:04;;;;;;;28.20;16.30;;;;;;;19.22;40.89;101017.84;105237;1291;69831;-92
2022/11/03 20:03:30;;;;;;;31.50;16.40;;;;;;;19.21;40.87;101020.27;105304;1290;74419;-92
2022/11/03 20:05:59;;;;;;;29.70;16.40;;;;;;;19.21;40.78;101021.34;105509;1294;69937;-91
2022/11/03 20:08:31;;;;;;;32.10;17.10;;;;;;;19.20;40.80;101020.10;105322;1287;72633;-91
2022/11/03 20:10:56;;;;;;;28.30;17.80;;;;;;;19.21;40.76;101021.70;105266;1291;70030;-91
2022/11/03 20:13:27;;;;;;;28.70;17.20;;;;;;;19.20;40.88;101021.48;106121;1281;67655;-92
2022/11/03 20:15:57;;;;;;;29.40;17.70;;;;;;;19.20;40.76;101020.82;105825;1287;74485;-92
2022/11/03 20:18:22;;;;;;;30.80;16.80;;;;;;;19.20;40.87;101023.05;106184;1274;81864;-91
2022/11/03 20:20:52;;;;;;;28.40;17.10;;;;;;;19.20;40.85;101022.28;106768;1287;67163;-91
2022/11/03 20:23:26;;;;;;;30.70;16.80;;;;;;;19.20;40.80;101026.88;106937;1286;67337;31
2022/11/03 20:25:52;;;;;;;31.00;17.70;;;;;;;19.20;40.77;101025.10;105553;1293;68096;-91
2022/11/03 20:28:21;;;;;;;35.80;16.60;;;;;;;19.20;40.84;101023.52;105627;1291;68436;-91
2022/11/03 20:30:47;;;;;;;27.70;15.90;;;;;;;19.19;40.91;101021.83;105655;1294;82887;-92
2022/11/03 20:33:15;;;;;;;30.60;16.90;;;;;;;19.19;40.85;101023.75;105596;1289;70052;-92
2022/11/03 20:35:44;;;;;;;31.50;17.10;;;;;;;19.20;40.86;101023.98;105483;1287;70130;-91
2022/11/03 20:41:18;;;;;;;27.50;16.20;;;;;;;19.19;40.76;101024.42;105918;1288;75280;-88
2022/11/03 20:43:45;;;;;;;34.90;16.60;;;;;;;19.19;40.93;101024.20;105325;1287;82935;-91
2022/11/03 20:46:28;;;;;;;29.40;16.40;;;;;;;19.18;40.71;101022.77;105480;1290;68336;-91
2022/11/03 20:48:54;;;;;;;24.30;15.60;;;;;;;19.18;40.81;101019.35;105435;1295;69948;-91
2022/11/03 21:03:32;;;;;;;25.30;15.10;;;;;;;19.13;40.69;101018.15;106006;1280;69700;-92
2022/11/03 21:11:58;;;;;;;24.70;16.20;;;;;;;19.14;40.63;101017.80;106113;1271;80502;-92
2022/11/03 21:20:13;;;;;;;28.50;15.60;;;;;;;19.13;40.76;101004.37;106235;1284;69845;31
2022/11/03 21:22:40;;;;;;;28.00;16.10;;;;;;;19.12;40.70;100996.34;105819;1291;74727;-92
2022/11/03 21:34:21;;;;;;;32.00;17.00;;;;;;;19.12;40.70;100983.70;106732;1288;67460;-91
2022/11/03 21:36:46;;;;;;;30.20;17.40;;;;;;;19.12;40.67;100984.63;106513;1287;67359;-92
2022/11/03 21:51:24;;;;;;;29.50;16.50;;;;;;;19.10;40.66;100973.52;105706;1290;73214;-93
2022/11/03 21:53:49;;;;;;;28.30;17.70;;;;;;;19.09;40.57;100969.02;106019;1288;82865;-92
2022/11/03 21:56:15;;;;;;;29.70;17.10;;;;;;;19.09;40.61;100963.71;105839;1291;67524;-91
2022/11/03 21:58:41;;;;;;;33.10;18.00;;;;;;;19.08;40.58;100959.41;106381;1284;67636;-92
2022/11/03 22:01:15;;;;;;;36.30;18.00;;;;;;;19.09;40.63;100958.76;105956;1287;66943;-92
2022/11/03 22:06:41;;;;;;;34.70;17.80;;;;;;;19.07;40.61;100952.83;105882;1293;82923;-92
2022/11/03 22:09:16;;;;;;;28.20;18.00;;;;;;;19.07;40.55;100949.23;105484;1291;72367;-91
2022/11/03 22:11:42;;;;;;;34.90;17.70;;;;;;;19.07;40.60;100949.71;105438;1287;67472;-91
2022/11/03 22:36:52;;;;;;;25.30;14.60;;;;;;;19.01;40.58;100927.43;105952;1281;72300;-93
2022/11/03 22:47:55;;;;;;;25.00;14.90;;;;;;;19.00;40.44;100920.03;106013;1287;82921;-92
2022/11/03 22:50:45;;;;;;;25.40;15.50;;;;;;;19.00;40.51;100919.02;105810;1292;72507;-92
2022/11/03 22:56:18;;;;;;;26.20;14.30;;;;;;;18.99;40.39;100909.30;106202;1285;67395;-92
2022/11/03 22:58:48;;;;;;;24.60;14.50;;;;;;;18.98;40.36;100908.09;105476;1291;75389;31
2022/11/03 23:01:16;;;;;;;27.90;14.70;;;;;;;18.99;40.32;100907.55;105283;1294;83682;-91
2022/11/03 23:03:42;;;;;;;24.10;14.80;;;;;;;18.98;40.31;100906.78;105294;1290;72514;-92
2022/11/03 23:06:13;;;;;;;24.90;14.00;;;;;;;18.98;40.35;100907.34;105095;1296;69954;-92
2022/11/03 23:08:39;;;;;;;26.40;15.00;;;;;;;18.98;40.30;100904.23;105322;1294;69902;-91
2022/11/03 23:11:25;;;;;;;27.10;14.70;;;;;;;18.97;40.18;100901.15;105198;1290;68423;-92
2022/11/03 23:14:04;;;;;;;22.20;14.60;;;;;;;18.97;40.28;100903.02;105333;1294;83071;-91
2022/11/03 23:22:07;;;;;;;29.70;16.50;;;;;;;18.95;40.33;100909.61;104920;1290;67230;-91
2022/11/03 23:27:17;;;;;;;25.20;15.90;;;;;;;18.93;40.19;100904.68;105142;1288;83098;-91
2022/11/03 23:29:43;;;;;;;27.10;16.10;;;;;;;18.93;40.16;100904.38;104966;1289;70026;-92
2022/11/03 23:32:32;;;;;;;27.80;15.30;;;;;;;18.91;40.25;100900.33;104992;1291;67653;-92
2022/11/03 23:35:06;;;;;;;30.90;17.20;;;;;;;18.92;40.23;100897.23;105108;1288;68508;-92
2022/11/03 23:42:53;;;;;;;30.40;15.90;;;;;;;18.90;40.05;100891.89;105114;1289;72295;-91
2022/11/03 23:50:47;;;;;;;28.60;16.20;;;;;;;18.88;40.11;100884.46;104850;1295;74301;-91
2022/11/03 23:53:13;;;;;;;25.20;16.20;;;;;;;18.87;39.99;100879.30;104713;1297;70060;-91
2022/11/03 23:58:17;;;;;;;29.30;16.00;;;;;;;18.87;40.03;100883.02;104722;1295;70018;-91
2022/11/03 23:58:27;;;;;;;25.50;15.90;;;;;;;18.86;39.92;100882.81;104935;1294;69938;-91
